• Join FlightAware (Why Join?)
  • Login
  • US Flag 
07:06AM EDT


 

Airport Tracker/Info


-or-


 

Live Flight TrackerFlight Track Log ✈ TRS81 ✈ 20-Aug-2013 ✈ KATL - KDCA

Flight Track Log - Related Links

Times and Time Zones

All times are in EDT time to prevent confusion due to time zone crossing. See the TRS81 flight status page for this flight to view local times or setup timezone preferences in your user account.

Time Position Orientation Groundspeed Altitude Reporting Facility
EDT Latitude Longitude Course Direction KTS MPH feet Rate Location/Type
01:41PM 33.6333 -84.3833 90° East 179 206 2,500  Level Atlanta TRACON
01:42PM 33.6333 -84.3000 90° East 241 277 3,800 1,680 Climbing Atlanta TRACON
01:43PM 33.6333 -84.2167 90° East 273 314 5,900 2,160 Climbing Atlanta TRACON
01:44PM 33.6356 -84.1136 88° East 308 354 8,400 2,100 Climbing Atlanta Center
01:45PM 33.6817 -84.0364 54° Northeast 277 319 10,500 2,040 Climbing Atlanta Center
01:46PM 33.7400 -83.9614 47° Northeast 294 338 12,600 1,740 Climbing Atlanta Center
01:47PM 33.8067 -83.8764 47° Northeast 326 375 14,000 1,560 Climbing Atlanta Center
01:48PM 33.8794 -83.7811 47° Northeast 359 413 15,700 1,740 Climbing Atlanta Center
01:49PM 33.9522 -83.6781 50° Northeast 392 451 17,500 1,620 Climbing Atlanta Center
01:50PM 34.0231 -83.5650 53° Northeast 412 474 19,000 1,440 Climbing Atlanta Center
01:51PM 34.0975 -83.4467 53° Northeast 419 482 20,400 1,380 Climbing Atlanta Center
01:52PM 34.1700 -83.3308 53° Northeast 431 496 21,900 1,380 Climbing Atlanta Center
01:53PM 34.2444 -83.2094 53° Northeast 436 502 23,200 1,200 Climbing Atlanta Center
01:54PM 34.3144 -83.0956 53° Northeast 446 513 24,300 1,020 Climbing Atlanta Center
01:55PM 34.3928 -82.9664 54° Northeast 466 536 25,300 1,080 Climbing Atlanta Center
01:56PM 34.4731 -82.8394 52° Northeast 481 554 26,500 1,020 Climbing Atlanta Center
01:57PM 34.5592 -82.7069 52° Northeast 486 559 27,400 900 Climbing Atlanta Center
01:58PM 34.6472 -82.5642 53° Northeast 486 559 28,300 960 Climbing Atlanta Center
01:59PM 34.7311 -82.4289 53° Northeast 486 559 29,400 900 Climbing Atlanta Center
02:00PM 34.8128 -82.2956 53° Northeast 486 559 30,100 780 Climbing Atlanta Center
02:01PM 34.8964 -82.1597 53° Northeast 486 559 31,000 960 Climbing Atlanta Center
02:02PM 34.9756 -82.0261 54° Northeast 486 559 32,100 900 Climbing Atlanta Center
02:03PM 35.0547 -81.8897 55° Northeast 486 559 32,900 420 Climbing Atlanta Center
02:04PM 35.1272 -81.7508 57° Northeast 486 559 33,000  Climbing Atlanta Center
02:05PM 35.2019 -81.6089 57° Northeast 486 559 33,000  Level Atlanta Center
02:06PM 35.2761 -81.4719 56° Northeast 486 559 33,000  Level Atlanta Center
02:07PM 35.3464 -81.3322 58° Northeast 486 559 33,000  Level Atlanta Center
02:08PM 35.4203 -81.1894 58° Northeast 486 559 33,000  Level Atlanta Center
02:09PM 35.4939 -81.0442 58° Northeast 486 559 33,000  Level Atlanta Center
02:10PM 35.5697 -80.9008 57° Northeast 493 567 33,000  Level Atlanta Center
02:11PM 35.6433 -80.7628 57° Northeast 488 562 33,000  Level Atlanta Center
02:12PM 35.7164 -80.6192 58° Northeast 488 562 33,000  Level Atlanta Center
02:13PM 35.7817 -80.4908 58° Northeast 488 562 33,000  Level Atlanta Center
02:14PM 35.8567 -80.3467 57° Northeast 495 570 33,000  Level Atlanta Center
02:16PM 36.0306 -80.0097 57° Northeast 497 572 33,000  Level Washington Center
02:17PM 36.0997 -79.8878 55° Northeast 487 560 33,000  Level Washington Center
02:18PM 36.1889 -79.7253 56° Northeast 498 573 33,000  Level Washington Center
02:19PM 36.2578 -79.6025 55° Northeast 498 573 33,000 -300 Level Washington Center
02:20PM 36.3289 -79.4747 55° Northeast 498 573 32,500 -720 Descending Washington Center
02:21PM 36.4239 -79.3039 55° Northeast 503 579 31,600 -900 Descending Washington Center
02:22PM 36.5033 -79.1656 54° Northeast 503 579 30,800 -3,360 Descending Washington Center
02:23PM 36.5758 -79.0397 54° Northeast 503 579 25,000 -1,980 Descending Washington Center
02:24PM 36.6572 -78.8956 55° Northeast 498 573 26,900  Climbing Washington Center
02:25PM 36.7278 -78.7561 58° Northeast 492 566 25,000 -960 Descending Washington Center
02:26PM 36.8000 -78.6267 55° Northeast 469 540 25,000 -300 Level Washington Center
02:27PM 36.8806 -78.4819 55° Northeast 464 534 24,500 -780 Descending Washington Center
02:28PM 36.9506 -78.3547 55° Northeast 454 522 23,500 -780 Descending Washington Center
02:29PM 37.0181 -78.2244 57° Northeast 449 517 23,000 -300 Descending Washington Center
02:30PM 37.0786 -78.1197 54° Northeast 434 499 22,900 -300 Descending Washington Center
02:31PM 37.1725 -78.0236 39° Northeast 421 484 22,500 -420 Descending Washington Center
02:32PM 37.2742 -77.9461 31° Northeast 421 484 22,100 -300 Descending Washington Center
02:33PM 37.3758 -77.8708 30° Northeast 421 484 22,000 -60 Descending Washington Center
02:34PM 37.4753 -77.7925 32° Northeast 421 484 22,000  Level Washington Center
02:35PM 37.5767 -77.7169 31° Northeast 421 484 22,000  Level Washington Center
02:36PM 37.6761 -77.6383 32° Northeast 421 484 22,000 -540 Level Washington Center
02:37PM 37.7756 -77.5622 31° Northeast 416 479 21,000 -1,740 Descending Washington Center
02:38PM 37.8706 -77.4858 32° Northeast 410 472 18,600 -2,220 Descending Washington Center
02:39PM 37.9633 -77.4144 31° Northeast 404 465 16,600 -2,220 Descending Washington Center
02:40PM 38.0519 -77.3481 31° Northeast 389 448 14,200 -2,220 Descending Washington Center
02:41PM 38.1364 -77.2786 33° Northeast 372 428 12,200 -1,680 Descending Washington Center
02:42PM 38.2186 -77.2172 30° Northeast 359 413 10,900 -1,140 Descending Washington Center
02:43PM 38.2903 -77.1578 33° Northeast 331 381 10,000 -480 Descending Washington Center
02:44PM 38.3717 -77.1436 North 294 338 10,000  Level Washington Center
02:45PM 38.4553 -77.1242 10° North 289 333 10,000  Level Washington Center
02:46PM 38.5347 -77.1097 North 289 333 10,000  Level Washington Center
02:47PM 38.6142 -77.0903 11° North 289 333 10,000 -420 Level Washington Center
02:48PM 38.6958 -77.0733 North 289 333 9,200 -1,620 Descending Washington Center
02:49PM 38.7708 -77.0800 356° North 284 327 6,800 -1,920 Descending Washington Center
02:50PM 38.8347 -77.1267 330° Northwest 263 303 5,500 -1,740 Descending Washington Center
02:51PM 38.9000 -77.2000 319° Northwest 266 306 3,500 -1,320 Descending Potomac TRACON
02:52PM 38.9500 -77.2333 333° Northwest 274 315 3,000 -300 Descending Potomac TRACON
02:53PM 38.9667 -77.1667 72° East 233 268 3,000 -420 Level Potomac TRACON
02:54PM 38.9333 -77.1167 131° Southeast 187 215 2,200 -960 Descending Potomac TRACON
02:55PM 38.9000 -77.0667 131° Southeast 158 182 1,100 -960 Descending Potomac TRACON
02:56PM 38.8667 -77.0333 142° Southeast 144 166 300 -840 Descending Potomac TRACON
02:58PM 38.8500 -77.0333 111° Southeast  Level FlightAware Approximate
03:05PM 38.8519 -77.0377 111° Southeast  Level Estimated
03:06PM 38.8500 -77.0333 111° Southeast  Level FlightAware Approximate
03:07PM 38.8519 -77.0377 111° Southeast  Level Estimated